Time;durP1;ratioP1;P1;durP2;ratioP2;P2;SDS_P1;SDS_P2;PMS_P1;PMS_P2;Temp;Humidity;BMP_temperature;BMP_pressure;BME280_temperature;BME280_humidity;BME280_pressure;Samples;Min_cycle;Max_cycle;Signal;HPM_P1;HPM_P2
2022/08/10 00:02:42;;;;;;;5.53;4.28;;;24.50;99.90;;;;;;5292445;28;20050;-74
2022/08/10 00:05:13;;;;;;;7.82;4.95;;;24.60;99.90;;;;;;5292426;28;20012;-74
2022/08/10 00:07:44;;;;;;;11.43;5.40;;;24.60;99.90;;;;;;5292249;28;20541;-74
2022/08/10 00:10:17;;;;;;;6.60;4.25;;;24.60;99.90;;;;;;5291936;28;20126;-75
2022/08/10 00:12:48;;;;;;;8.55;4.55;;;24.60;99.90;;;;;;5292095;27;20453;-75
2022/08/10 00:15:21;;;;;;;4.82;4.32;;;24.60;99.90;;;;;;5292161;28;20043;-74
2022/08/10 00:17:51;;;;;;;7.65;4.55;;;24.50;99.90;;;;;;5292134;28;20020;-74
2022/08/10 00:20:22;;;;;;;8.15;4.75;;;24.60;99.90;;;;;;5292032;27;20054;-74
2022/08/10 00:22:53;;;;;;;7.97;4.63;;;24.60;99.90;;;;;;5292219;27;20027;-74
2022/08/10 00:25:24;;;;;;;9.50;5.28;;;24.60;99.90;;;;;;5291994;28;20111;-74
2022/08/10 00:27:55;;;;;;;6.95;4.80;;;24.50;99.90;;;;;;5291989;27;20023;-75
2022/08/10 00:30:25;;;;;;;7.55;4.43;;;24.50;99.90;;;;;;5291694;28;20043;-74
2022/08/10 00:32:56;;;;;;;9.00;5.20;;;24.60;99.90;;;;;;5292046;28;20173;-74
2022/08/10 00:35:27;;;;;;;7.45;4.70;;;24.60;99.90;;;;;;5291613;28;20027;-74
2022/08/10 00:37:58;;;;;;;8.60;4.30;;;24.50;99.90;;;;;;5291516;28;20020;-74
2022/08/10 00:40:29;;;;;;;10.88;4.88;;;24.40;99.90;;;;;;5291455;28;20020;-74
2022/08/10 00:43:00;;;;;;;7.13;4.63;;;24.50;99.90;;;;;;5291714;28;20024;-74
2022/08/10 00:45:30;;;;;;;10.55;5.05;;;24.40;99.90;;;;;;5291415;28;20065;-75
2022/08/10 00:48:02;;;;;;;6.13;4.43;;;24.40;99.90;;;;;;5291310;28;20064;-75
2022/08/10 00:50:33;;;;;;;6.82;4.78;;;24.20;99.90;;;;;;5291326;28;20119;-74
2022/08/10 00:53:04;;;;;;;8.60;4.80;;;24.30;99.90;;;;;;5291371;28;20015;-75
2022/08/10 00:55:35;;;;;;;10.77;4.93;;;24.20;99.90;;;;;;5291318;28;20038;-74
2022/08/10 00:58:07;;;;;;;7.43;4.45;;;24.10;99.90;;;;;;5291127;28;20028;-74
2022/08/10 01:00:38;;;;;;;8.35;4.93;;;24.00;99.90;;;;;;5291008;28;20079;-74
2022/08/10 01:03:09;;;;;;;8.05;5.10;;;24.10;99.90;;;;;;5291320;28;20100;-74
2022/08/10 01:06:08;;;;;;;10.27;5.28;;;24.00;99.90;;;;;;5291065;28;20481;-75
2022/08/10 01:08:57;;;;;;;8.30;5.20;;;24.20;99.90;;;;;;5291142;28;20024;-75
2022/08/10 01:11:58;;;;;;;6.78;4.60;;;24.00;99.90;;;;;;5291018;28;20289;-74
2022/08/10 01:14:54;;;;;;;6.25;5.10;;;24.00;99.90;;;;;;5259386;28;20431;-74
2022/08/10 01:17:52;;;;;;;7.55;4.55;;;24.20;99.90;;;;;;5291059;28;20023;-74
2022/08/10 01:20:46;;;;;;;6.03;3.97;;;24.30;99.90;;;;;;5290888;28;20043;-74
2022/08/10 01:23:54;;;;;;;6.60;3.95;;;24.50;99.90;;;;;;5290844;28;20463;-74
2022/08/10 01:26:48;;;;;;;7.25;3.63;;;24.60;99.90;;;;;;5290714;28;20027;-74
2022/08/10 01:29:45;;;;;;;9.05;4.00;;;24.60;99.90;;;;;;5290447;28;20344;-74
2022/08/10 01:32:23;;;;;;;5.50;3.28;;;24.60;99.90;;;;;;5290479;28;20484;-74
2022/08/10 01:35:02;;;;;;;5.55;2.92;;;24.60;99.90;;;;;;5290682;28;20356;-75
2022/08/10 01:37:39;;;;;;;6.15;3.47;;;24.60;99.90;;;;;;5290668;28;20019;-74
2022/08/10 01:40:12;;;;;;;5.57;3.13;;;24.60;99.90;;;;;;5290499;28;20031;-75
2022/08/10 01:42:45;;;;;;;7.15;4.43;;;24.70;99.90;;;;;;5290301;28;20374;-74
2022/08/10 01:45:19;;;;;;;7.43;4.13;;;24.70;99.90;;;;;;5290458;28;20034;-74
2022/08/10 01:50:51;;;;;;;3.85;3.15;;;24.80;99.90;;;;;;5289523;28;20397;-75
2022/08/10 01:53:24;;;;;;;;;;;24.70;99.90;;;;;;5290600;28;20051;-74
2022/08/10 01:55:56;;;;;;;6.72;3.67;;;24.80;99.90;;;;;;5290046;28;19907;-75
2022/08/10 01:58:30;;;;;;;7.60;3.80;;;24.70;99.90;;;;;;5290002;28;20028;-74
2022/08/10 02:01:01;;;;;;;9.52;3.92;;;24.70;99.90;;;;;;5289799;28;20051;-74
2022/08/10 02:03:34;;;;;;;8.48;3.10;;;24.70;99.90;;;;;;5290078;28;20432;-74
2022/08/10 02:06:06;;;;;;;6.13;3.47;;;24.70;99.90;;;;;;5289909;28;20012;-74
2022/08/10 02:08:38;;;;;;;7.93;3.40;;;24.70;99.90;;;;;;5289829;27;20023;-74
2022/08/10 02:11:11;;;;;;;7.15;3.55;;;24.70;99.90;;;;;;5289811;28;20132;-75
2022/08/10 02:13:43;;;;;;;6.18;3.45;;;24.80;99.90;;;;;;5289816;28;20024;-75
2022/08/10 02:16:15;;;;;;;5.88;3.95;;;24.80;99.90;;;;;;5289702;28;20034;-74
2022/08/10 02:18:47;;;;;;;6.43;3.40;;;24.80;99.90;;;;;;5289867;28;20030;-74
2022/08/10 02:21:19;;;;;;;6.88;3.40;;;24.80;99.90;;;;;;5289764;28;20020;-75
2022/08/10 02:23:53;;;;;;;6.95;3.67;;;24.90;99.90;;;;;;5289643;28;20363;-74
2022/08/10 02:26:25;;;;;;;9.25;3.45;;;24.90;99.90;;;;;;5289637;28;20496;-74
2022/08/10 02:28:56;;;;;;;7.53;3.25;;;25.00;99.90;;;;;;5289463;28;20046;-74
2022/08/10 02:31:28;;;;;;;6.25;4.03;;;25.00;99.90;;;;;;5289628;28;20034;-74
2022/08/10 02:33:59;;;;;;;5.38;3.75;;;25.00;99.90;;;;;;5289379;28;20463;-74
2022/08/10 02:36:33;;;;;;;6.30;3.97;;;25.00;99.90;;;;;;5289445;28;20438;-75
2022/08/10 02:39:06;;;;;;;10.43;3.75;;;25.00;99.90;;;;;;5289527;28;20024;-74
2022/08/10 02:42:04;;;;;;;8.30;4.43;;;25.10;99.90;;;;;;5289365;28;20055;-75
2022/08/10 02:44:58;;;;;;;8.48;3.83;;;25.00;99.90;;;;;;5289570;28;20028;-75
2022/08/10 02:47:47;;;;;;;9.98;4.07;;;25.00;99.90;;;;;;5289417;28;20031;-74
2022/08/10 02:50:30;;;;;;;6.80;3.03;;;24.90;99.90;;;;;;5289282;28;20039;-74
2022/08/10 02:53:04;;;;;;;5.05;3.20;;;25.00;99.90;;;;;;5289395;28;20027;-74
2022/08/10 02:55:49;;;;;;;6.18;3.55;;;25.00;99.90;;;;;;5289189;28;20374;-74
2022/08/10 02:58:39;;;;;;;5.97;3.08;;;25.00;99.90;;;;;;5288985;28;20019;-75
2022/08/10 03:01:20;;;;;;;;;;;25.00;99.90;;;;;;5289458;28;20051;-74
2022/08/10 03:04:13;;;;;;;8.25;4.05;;;24.90;99.90;;;;;;5293539;28;19904;-74
2022/08/10 03:06:52;;;;;;;10.18;3.83;;;25.00;99.90;;;;;;5293478;28;20050;-74
2022/08/10 03:09:25;;;;;;;7.88;3.58;;;25.00;99.90;;;;;;5293416;28;20031;-74
2022/08/10 03:11:57;;;;;;;8.75;3.67;;;25.00;99.90;;;;;;5293256;28;20036;-75
2022/08/10 03:14:29;;;;;;;5.88;3.50;;;25.00;99.90;;;;;;5293192;27;20035;-75
2022/08/10 03:17:01;;;;;;;8.75;4.10;;;25.00;99.90;;;;;;5293203;28;20471;-74
2022/08/10 03:19:33;;;;;;;7.43;3.55;;;24.90;99.90;;;;;;5293232;28;20031;-74
2022/08/10 03:22:06;;;;;;;7.82;3.92;;;25.00;99.90;;;;;;5293307;28;20039;-75
2022/08/10 03:24:38;;;;;;;11.27;4.15;;;25.00;99.90;;;;;;5293360;28;20023;-75
2022/08/10 03:27:10;;;;;;;7.95;3.67;;;24.90;99.90;;;;;;5293150;28;20035;-75
2022/08/10 03:29:42;;;;;;;9.63;3.67;;;24.90;99.90;;;;;;5292690;27;20044;-74
2022/08/10 03:32:13;;;;;;;9.00;3.90;;;25.00;99.90;;;;;;5293090;28;20051;-74
2022/08/10 03:34:44;;;;;;;7.53;3.72;;;24.90;99.90;;;;;;5292976;28;20024;-74
2022/08/10 03:37:15;;;;;;;8.75;3.83;;;24.90;99.90;;;;;;5293012;28;20022;-75
2022/08/10 03:39:46;;;;;;;9.35;3.80;;;25.00;99.90;;;;;;5292963;28;20035;-75
2022/08/10 03:42:21;;;;;;;6.25;3.13;;;25.00;99.90;;;;;;5292746;28;20023;-74
2022/08/10 03:44:53;;;;;;;5.63;3.28;;;25.00;99.90;;;;;;5291737;28;20470;-74
2022/08/10 03:47:28;;;;;;;10.70;3.83;;;25.00;99.90;;;;;;5292872;28;20829;-74
2022/08/10 03:50:01;;;;;;;13.70;5.45;;;25.00;99.90;;;;;;5291410;28;20035;-75
2022/08/10 03:52:32;;;;;;;7.25;3.72;;;25.00;99.90;;;;;;5292709;27;20023;-74
2022/08/10 03:55:04;;;;;;;7.18;3.13;;;25.00;99.90;;;;;;5292773;28;20482;-75
2022/08/10 03:57:35;;;;;;;7.70;3.53;;;25.00;99.90;;;;;;5292632;28;20024;-75
2022/08/10 04:00:08;;;;;;;7.45;3.33;;;25.00;99.90;;;;;;5292372;28;20418;-74
2022/08/10 04:02:39;;;;;;;9.93;4.07;;;25.00;99.90;;;;;;5292661;28;20095;-75
2022/08/10 04:05:13;;;;;;;5.55;3.13;;;25.00;99.90;;;;;;5292506;28;20115;-74
2022/08/10 04:07:44;;;;;;;9.98;4.22;;;25.10;99.90;;;;;;5292532;28;20027;-75
2022/08/10 04:10:15;;;;;;;7.40;3.42;;;25.00;99.90;;;;;;5292303;28;20530;-75
2022/08/10 04:12:45;;;;;;;11.13;3.80;;;25.00;99.90;;;;;;5292344;28;20091;-74
2022/08/10 04:15:16;;;;;;;6.10;3.63;;;25.10;99.90;;;;;;5291756;28;20031;-75
2022/08/10 04:17:47;;;;;;;10.48;3.58;;;25.10;99.90;;;;;;5292354;28;20451;-75
2022/08/10 04:20:48;;;;;;;4.82;3.10;;;25.10;99.90;;;;;;5292438;28;20062;-74
2022/08/10 04:23:24;;;;;;;7.72;3.63;;;25.10;99.90;;;;;;5274589;28;20398;-74
2022/08/10 04:25:55;;;;;;;8.68;3.67;;;25.10;99.90;;;;;;5292235;28;20036;-75
2022/08/10 04:28:26;;;;;;;10.13;3.65;;;25.10;99.90;;;;;;5291753;28;20030;-75
2022/08/10 04:31:00;;;;;;;6.50;3.60;;;25.10;99.90;;;;;;5291894;28;20085;-75
2022/08/10 04:33:32;;;;;;;8.40;3.78;;;25.10;99.90;;;;;;5291915;28;20019;-74
2022/08/10 04:36:04;;;;;;;7.68;3.55;;;25.10;99.90;;;;;;5292104;28;20089;-74
2022/08/10 04:38:36;;;;;;;8.23;3.90;;;25.10;99.90;;;;;;5291545;28;20055;-74
2022/08/10 04:41:07;;;;;;;6.45;3.03;;;25.10;99.90;;;;;;5291758;28;20042;-74
2022/08/10 04:43:38;;;;;;;7.40;3.60;;;25.20;99.90;;;;;;5291699;28;20110;-75
2022/08/10 04:46:09;;;;;;;7.07;3.40;;;25.10;99.90;;;;;;5291636;28;20024;-74
2022/08/10 04:48:40;;;;;;;10.00;4.20;;;25.10;99.90;;;;;;5291456;28;20034;-75
2022/08/10 04:51:14;;;;;;;7.70;4.22;;;25.10;99.90;;;;;;5291560;28;20028;-74
2022/08/10 04:53:48;;;;;;;5.22;3.25;;;25.10;99.90;;;;;;5291526;28;20035;-75
2022/08/10 04:56:19;;;;;;;6.82;3.25;;;25.10;99.90;;;;;;5291372;28;20034;-74
2022/08/10 04:58:50;;;;;;;7.72;3.70;;;25.20;99.90;;;;;;5291079;28;20044;-75
2022/08/10 05:01:21;;;;;;;7.07;4.10;;;25.20;99.90;;;;;;5291173;28;20131;-74
2022/08/10 05:03:51;;;;;;;9.48;3.60;;;25.30;99.90;;;;;;5291391;28;20063;-74
2022/08/10 05:06:22;;;;;;;13.43;4.20;;;25.20;99.90;;;;;;5291248;28;20020;-74
2022/08/10 05:08:53;;;;;;;7.43;3.33;;;25.20;99.90;;;;;;5291098;28;20087;-74
2022/08/10 05:11:24;;;;;;;9.70;3.55;;;25.20;99.90;;;;;;5290943;28;20047;-75
2022/08/10 05:13:55;;;;;;;7.40;3.42;;;25.20;99.90;;;;;;5289952;28;20019;-74
2022/08/10 05:16:26;;;;;;;5.65;3.17;;;25.20;99.90;;;;;;5290924;28;20039;-74
2022/08/10 05:18:56;;;;;;;6.93;3.78;;;25.20;99.90;;;;;;5290610;28;20108;-74
2022/08/10 05:21:27;;;;;;;9.18;4.35;;;25.00;99.90;;;;;;5290610;28;20039;-74
2022/08/10 05:24:03;;;;;;;9.75;4.30;;;25.00;99.90;;;;;;5290661;28;20451;-73
2022/08/10 05:26:34;;;;;;;9.25;4.43;;;24.90;99.90;;;;;;5290629;28;20035;-72
2022/08/10 05:29:04;;;;;;;9.75;4.60;;;24.90;99.90;;;;;;5290226;28;20026;-73
2022/08/10 05:31:35;;;;;;;9.95;4.53;;;24.80;99.90;;;;;;5290343;28;20126;-73
2022/08/10 05:34:06;;;;;;;11.05;5.22;;;24.80;99.90;;;;;;5290343;28;20020;-73
2022/08/10 05:36:38;;;;;;;9.40;5.15;;;24.80;99.90;;;;;;5290684;28;20418;-74
2022/08/10 05:39:10;;;;;;;7.72;3.58;;;24.60;99.90;;;;;;5290827;28;20023;-74
2022/08/10 05:41:41;;;;;;;9.23;4.32;;;24.30;99.90;;;;;;5290482;28;20031;-74
2022/08/10 05:44:13;;;;;;;7.05;2.67;;;24.10;99.90;;;;;;5290254;28;20078;-73
2022/08/10 05:46:44;;;;;;;7.00;3.05;;;24.00;99.90;;;;;;5290022;27;20181;-74
2022/08/10 05:49:15;;;;;;;5.03;2.20;;;23.70;99.90;;;;;;5290217;28;20099;-74
2022/08/10 05:51:45;;;;;;;5.00;2.25;;;23.70;99.90;;;;;;5289965;28;20126;-74
2022/08/10 05:54:16;;;;;;;2.88;1.80;;;23.60;99.90;;;;;;5290062;28;20160;-73
2022/08/10 05:56:48;;;;;;;4.47;1.98;;;23.30;99.90;;;;;;5289921;28;20040;-73
2022/08/10 05:59:20;;;;;;;3.45;2.10;;;23.10;99.90;;;;;;5289594;28;20130;-74
2022/08/10 06:01:52;;;;;;;4.07;2.35;;;23.20;99.90;;;;;;5290072;28;20052;-74
2022/08/10 06:04:36;;;;;;;3.65;2.38;;;23.20;99.90;;;;;;5289896;28;20028;-74
2022/08/10 06:07:07;;;;;;;3.30;2.08;;;23.30;99.90;;;;;;5289890;28;20058;-74
2022/08/10 06:09:40;;;;;;;5.43;2.08;;;23.30;99.90;;;;;;5289610;28;20023;-74
2022/08/10 06:12:12;;;;;;;3.08;1.92;;;23.10;99.90;;;;;;5289725;28;20409;-74
2022/08/10 06:14:59;;;;;;;3.05;1.80;;;23.30;99.90;;;;;;5289609;28;20020;-74
2022/08/10 06:17:31;;;;;;;3.22;2.47;;;23.20;99.90;;;;;;5289744;28;20526;-73
2022/08/10 06:20:02;;;;;;;2.88;2.20;;;23.00;99.90;;;;;;5289684;28;20034;-74
2022/08/10 06:22:34;;;;;;;3.63;2.20;;;23.00;99.90;;;;;;5289567;28;20023;-73
2022/08/10 06:25:06;;;;;;;4.28;2.60;;;22.90;99.90;;;;;;5289401;28;20028;-73
2022/08/10 06:27:38;;;;;;;5.95;2.78;;;23.30;99.90;;;;;;5289442;28;20027;-74
2022/08/10 06:30:10;;;;;;;3.47;2.35;;;23.40;99.90;;;;;;5287988;28;20122;-74
2022/08/10 06:32:41;;;;;;;4.47;1.98;;;23.30;99.90;;;;;;5289303;28;20157;-73
2022/08/10 06:35:12;;;;;;;6.50;2.78;;;23.20;99.90;;;;;;5289373;28;20062;-74
2022/08/10 06:37:44;;;;;;;6.85;2.50;;;23.10;99.90;;;;;;5288821;28;20019;-74
2022/08/10 06:40:15;;;;;;;4.35;1.80;;;23.20;99.90;;;;;;5289375;28;20034;-74
2022/08/10 06:42:48;;;;;;;2.65;1.90;;;22.80;99.90;;;;;;5289492;28;20024;-74
2022/08/10 06:45:22;;;;;;;3.85;2.00;;;22.80;99.90;;;;;;5289524;28;20019;-74
2022/08/10 06:47:59;;;;;;;3.28;2.00;;;22.60;99.90;;;;;;5289721;28;20031;-75
